Time;durP1;ratioP1;P1;durP2;ratioP2;P2;SDS_P1;SDS_P2;PMS_P1;PMS_P2;Temp;Humidity;BMP_temperature;BMP_pressure;BME280_temperature;BME280_humidity;BME280_pressure;Samples;Min_cycle;Max_cycle;Signal;HPM_P1;HPM_P2
2023/10/24 00:01:05;;;;;;;;;;;13.80;99.90;;;;;;4946502;29;20262;-73
2023/10/24 00:03:30;;;;;;;;;;;13.80;99.90;;;;;;4955114;29;19930;-73
2023/10/24 00:05:56;;;;;;;;;;;13.80;99.90;;;;;;4955716;29;19997;-78
2023/10/24 00:08:22;;;;;;;;;;;13.80;99.90;;;;;;4955409;29;19910;-76
2023/10/24 00:10:47;;;;;;;;;;;13.90;99.90;;;;;;4943952;29;20350;-78
2023/10/24 00:13:13;;;;;;;;;;;13.90;99.90;;;;;;4917997;29;19959;-73
2023/10/24 00:15:38;;;;;;;;;;;13.90;99.90;;;;;;4927856;29;20279;-73
2023/10/24 00:18:04;;;;;;;;;;;13.80;99.90;;;;;;4935987;29;19914;-73
2023/10/24 00:20:29;;;;;;;;;;;13.80;99.90;;;;;;4936047;29;19953;-78
2023/10/24 00:22:55;;;;;;;;;;;13.80;99.90;;;;;;4936066;29;19979;-78
2023/10/24 00:25:20;;;;;;;;;;;13.80;99.90;;;;;;4935784;29;19929;-78
2023/10/24 00:27:46;;;;;;;;;;;13.80;99.90;;;;;;4935095;29;19907;-73
2023/10/24 00:30:11;;;;;;;;;;;13.80;99.90;;;;;;4936144;29;20354;-73
2023/10/24 00:32:37;;;;;;;;;;;13.80;99.90;;;;;;4935801;29;19914;-78
2023/10/24 00:35:03;;;;;;;;;;;13.80;99.90;;;;;;4935616;29;19914;-75
2023/10/24 00:37:28;;;;;;;;;;;13.80;99.90;;;;;;4937781;29;20372;-77
2023/10/24 00:39:54;;;;;;;;;;;13.80;99.90;;;;;;4953790;29;20290;-77
2023/10/24 00:42:19;;;;;;;;;;;13.80;99.90;;;;;;4954891;29;19954;-74
2023/10/24 00:44:45;;;;;;;;;;;13.70;99.90;;;;;;4955049;29;20338;-78
2023/10/24 00:47:10;;;;;;;;;;;13.70;99.90;;;;;;4950918;29;19919;-79
2023/10/24 00:49:36;;;;;;;;;;;13.60;99.90;;;;;;4935630;29;19957;-74
2023/10/24 00:52:02;;;;;;;;;;;13.50;99.90;;;;;;4935804;29;19907;-74
2023/10/24 00:54:28;;;;;;;;;;;13.50;99.90;;;;;;4935381;29;19910;-74
2023/10/24 00:56:54;;;;;;;;;;;13.30;99.90;;;;;;4934784;29;19906;-74
2023/10/24 00:59:21;;;;;;;;;;;13.20;99.90;;;;;;4951288;29;19918;-78
2023/10/24 01:01:46;;;;;;;;;;;13.10;99.90;;;;;;4954403;29;19914;-79
2023/10/24 01:04:12;;;;;;;;;;;13.00;99.90;;;;;;4954625;29;20407;-78
2023/10/24 01:06:37;;;;;;;;;;;13.00;99.90;;;;;;4954932;29;19907;-74
2023/10/24 01:09:03;;;;;;;;;;;13.00;99.90;;;;;;4954497;29;19958;-74
2023/10/24 01:11:29;;;;;;;;;;;13.00;99.90;;;;;;4932586;29;19911;-78
2023/10/24 01:13:56;;;;;;;;;;;13.00;99.90;;;;;;4916423;29;19914;-73
2023/10/24 01:16:21;;;;;;;;;;;13.00;99.90;;;;;;4932678;29;20405;-78
2023/10/24 01:18:47;;;;;;;;;;;13.00;99.90;;;;;;4935150;29;20013;-73
2023/10/24 01:21:12;;;;;;;;;;;13.00;99.90;;;;;;4935287;29;19915;-73
2023/10/24 01:23:38;;;;;;;;;;;13.10;99.90;;;;;;4935960;29;19917;-77
2023/10/24 01:26:05;;;;;;;;;;;13.10;99.90;;;;;;4954401;29;19907;-78
2023/10/24 01:28:31;;;;;;;;;;;13.10;99.90;;;;;;4954724;29;20298;-73
2023/10/24 01:30:56;;;;;;;;;;;13.20;99.90;;;;;;4954608;29;19907;-78
2023/10/24 01:33:22;;;;;;;;;;;13.20;99.90;;;;;;4954154;29;19906;-73
2023/10/24 01:35:48;;;;;;;;;;;13.20;99.90;;;;;;4947620;29;19907;-73
2023/10/24 01:38:13;;;;;;;;;;;13.10;99.90;;;;;;4953582;28;20263;-78
2023/10/24 01:40:39;;;;;;;;;;;13.10;99.90;;;;;;4956811;29;19964;-78
2023/10/24 01:43:04;;;;;;;;;;;13.00;99.90;;;;;;4957910;29;20001;-76
2023/10/24 01:45:30;;;;;;;;;;;13.00;99.90;;;;;;4957618;29;19922;-73
2023/10/24 01:47:55;;;;;;;;;;;13.00;99.90;;;;;;4954659;29;19962;-73
2023/10/24 01:50:21;;;;;;;;;;;12.90;99.90;;;;;;4938616;29;20323;-78
2023/10/24 01:52:46;;;;;;;;;;;12.90;99.90;;;;;;4938755;29;19907;-78
2023/10/24 01:55:12;;;;;;;;;;;12.90;99.90;;;;;;4938808;29;19907;-78
2023/10/24 01:57:37;;;;;;;;;;;12.80;99.90;;;;;;4938330;29;19915;-73
2023/10/24 02:00:03;;;;;;;;;;;12.80;99.90;;;;;;4949666;29;19910;-73
2023/10/24 02:02:29;;;;;;;;;;;12.70;99.90;;;;;;4957631;29;19918;-78
2023/10/24 02:04:55;;;;;;;;;;;12.70;99.90;;;;;;4957766;29;20285;-77
2023/10/24 02:07:20;;;;;;;;;;;12.70;99.90;;;;;;4957608;29;19914;-73
2023/10/24 02:09:46;;;;;;;;;;;12.60;99.90;;;;;;4954172;29;20366;-77
2023/10/24 02:12:11;;;;;;;;;;;12.60;99.90;;;;;;4928246;29;19907;-73
2023/10/24 02:14:37;;;;;;;;;;;12.60;99.90;;;;;;4921975;29;19907;-72
2023/10/24 02:17:03;;;;;;;;;;;12.60;99.90;;;;;;4938056;29;19914;-77
2023/10/24 02:19:29;;;;;;;;;;;12.60;99.90;;;;;;4945796;29;20006;-77
2023/10/24 02:21:54;;;;;;;;;;;12.60;99.90;;;;;;4957020;29;20001;-77
2023/10/24 02:24:20;;;;;;;;;;;12.60;99.90;;;;;;4957130;29;19910;-72
2023/10/24 02:26:45;;;;;;;;;;;12.60;99.90;;;;;;4957022;29;19914;-72
2023/10/24 02:29:11;;;;;;;;;;;12.60;99.90;;;;;;4956997;29;20098;-77
2023/10/24 02:31:36;;;;;;;;;;;12.50;99.90;;;;;;4956998;29;19916;-77
2023/10/24 02:34:02;;;;;;;;;;;12.50;99.90;;;;;;4956926;29;19970;-77
2023/10/24 02:36:28;;;;;;;;;;;12.50;99.90;;;;;;4949222;29;20009;-72
2023/10/24 02:38:53;;;;;;;;;;;12.50;99.90;;;;;;4943563;29;19906;-72
2023/10/24 02:41:19;;;;;;;;;;;12.50;99.90;;;;;;4937828;29;20418;-77
2023/10/24 02:43:44;;;;;;;;;;;12.50;99.90;;;;;;4937911;29;20328;-77
2023/10/24 02:46:10;;;;;;;;;;;12.50;99.90;;;;;;4949066;29;20009;-77
2023/10/24 02:48:35;;;;;;;;;;;12.60;99.90;;;;;;4956717;29;19965;-77
2023/10/24 02:51:01;;;;;;;;;;;12.50;99.90;;;;;;4955877;28;20373;-72
2023/10/24 02:53:26;;;;;;;;;;;12.60;99.90;;;;;;4956373;29;19988;-73
2023/10/24 02:55:52;;;;;;;;;;;12.50;99.90;;;;;;4956530;29;19917;-77
2023/10/24 02:58:18;;;;;;;;;;;12.50;99.90;;;;;;4956608;29;19913;-77
2023/10/24 03:00:44;;;;;;;;;;;12.50;99.90;;;;;;4946418;29;19957;-77
2023/10/24 03:03:10;;;;;;;;;;;12.50;99.90;;;;;;4956601;29;19911;-72
2023/10/24 03:05:36;;;;;;;;;;;12.60;99.90;;;;;;4956525;29;19917;-72
2023/10/24 03:08:02;;;;;;;;;;;12.70;99.90;;;;;;4955627;29;20289;-77
2023/10/24 03:10:27;;;;;;;;;;;12.80;99.90;;;;;;4947955;29;19986;-77
2023/10/24 03:12:53;;;;;;;;;;;12.80;99.90;;;;;;4921224;29;19907;-77
2023/10/24 03:15:19;;;;;;;;;;;12.70;99.90;;;;;;4926308;29;20012;-77
2023/10/24 03:17:44;;;;;;;;;;;12.60;99.90;;;;;;4936386;29;19906;-77
2023/10/24 03:20:10;;;;;;;;;;;12.50;99.90;;;;;;4936686;29;20355;-73
2023/10/24 03:22:35;;;;;;;;;;;12.50;99.90;;;;;;4936065;29;20013;-77
2023/10/24 03:25:01;;;;;;;;;;;12.50;99.90;;;;;;4937063;29;19972;-72
2023/10/24 03:27:26;;;;;;;;;;;12.50;99.90;;;;;;4936952;29;19914;-77
2023/10/24 03:29:52;;;;;;;;;;;12.50;99.90;;;;;;4936671;29;19907;-71
2023/10/24 03:32:17;;;;;;;;;;;12.40;99.90;;;;;;4936727;29;19910;-72
2023/10/24 03:34:43;;;;;;;;;;;12.30;99.90;;;;;;4936741;29;19907;-77
2023/10/24 03:37:09;;;;;;;;;;;12.30;99.90;;;;;;4938033;29;20013;-77
2023/10/24 03:39:34;;;;;;;;;;;12.30;99.90;;;;;;4947894;29;19910;-78
2023/10/24 03:42:00;;;;;;;;;;;12.20;99.90;;;;;;4940578;29;19910;-72
2023/10/24 03:44:25;;;;;;;;;;;12.10;99.90;;;;;;4956030;29;19915;-72
2023/10/24 03:46:51;;;;;;;;;;;12.10;99.90;;;;;;4941032;29;19922;-77
2023/10/24 03:49:16;;;;;;;;;;;12.10;99.90;;;;;;4936501;29;19950;-77
2023/10/24 03:51:42;;;;;;;;;;;12.00;99.90;;;;;;4936260;29;20278;-72
2023/10/24 03:54:08;;;;;;;;;;;12.00;99.90;;;;;;4931102;29;19907;-77
2023/10/24 03:56:33;;;;;;;;;;;11.90;99.90;;;;;;4916705;29;19907;-72
2023/10/24 03:58:59;;;;;;;;;;;11.90;99.90;;;;;;4917121;29;19918;-72
2023/10/24 04:01:24;;;;;;;;;;;11.80;99.90;;;;;;4918641;29;20382;-72
2023/10/24 04:03:50;;;;;;;;;;;11.80;99.90;;;;;;4917509;29;19934;-77
2023/10/24 04:06:16;;;;;;;;;;;11.80;99.90;;;;;;4900254;29;20371;-72
2023/10/24 04:08:42;;;;;;;;;;;11.80;99.90;;;;;;4917203;29;19918;-72
2023/10/24 04:11:15;;;;;;;;;;;11.80;99.90;;;;;;4916778;29;19907;-72
2023/10/24 04:13:45;;;;;;;;;;;11.70;99.90;;;;;;4917043;29;19951;-77
2023/10/24 04:16:11;;;;;;;;;;;11.70;99.90;;;;;;4916808;29;19935;-77
2023/10/24 04:18:36;;;;;;;;;;;11.60;99.90;;;;;;4899752;29;19907;-77
2023/10/24 04:21:02;;;;;;;;;;;11.60;99.90;;;;;;4916943;29;19911;-72
2023/10/24 04:23:28;;;;;;;;;;;11.60;99.90;;;;;;4916317;29;19918;-72
2023/10/24 04:25:54;;;;;;;;;;;11.60;99.90;;;;;;4915936;29;19915;-77
2023/10/24 04:28:19;;;;;;;;;;;11.50;99.90;;;;;;4917011;29;19915;-77
2023/10/24 04:30:45;;;;;;;;;;;11.50;99.90;;;;;;4916832;29;19907;-77
2023/10/24 04:33:10;;;;;;;;;;;11.50;99.90;;;;;;4916702;29;19914;-77
2023/10/24 04:35:43;;;;;;;;;;;11.50;99.90;;;;;;4916277;29;20375;-72
2023/10/24 04:38:09;;;;;;;;;;;11.40;99.90;;;;;;4897366;29;20352;-72
2023/10/24 04:40:41;;;;;;;;;;;11.40;99.90;;;;;;4913695;29;19910;-77
2023/10/24 04:43:07;;;;;;;;;;;11.40;99.90;;;;;;4916430;29;19915;-76
2023/10/24 04:45:32;;;;;;;;;;;11.40;99.90;;;;;;4922474;29;19918;-77
2023/10/24 04:47:58;;;;;;;;;;;11.40;99.90;;;;;;4954022;29;20001;-72
2023/10/24 04:50:24;;;;;;;;;;;11.40;99.90;;;;;;4926326;29;19921;-72
2023/10/24 04:52:50;;;;;;;;;;;11.50;99.90;;;;;;4954333;29;19910;-77
2023/10/24 04:55:15;;;;;;;;;;;11.40;99.90;;;;;;4923225;29;19922;-77
2023/10/24 04:57:42;;;;;;;;;;;11.50;99.90;;;;;;4916585;29;19907;-78
2023/10/24 05:00:11;;;;;;;;;;;11.40;99.90;;;;;;4933194;29;20005;-72
2023/10/24 05:02:36;;;;;;;;;;;11.40;99.90;;;;;;4954678;29;20050;-72
2023/10/24 05:05:02;;;;;;;;;;;11.40;99.90;;;;;;4927629;29;20010;-77
2023/10/24 05:07:28;;;;;;;;;;;11.40;99.90;;;;;;4916515;29;19907;-77
2023/10/24 05:09:53;;;;;;;;;;;11.40;99.90;;;;;;4927122;29;19917;-77
2023/10/24 05:12:19;;;;;;;;;;;11.40;99.90;;;;;;4924280;29;19918;-72
2023/10/24 05:14:44;;;;;;;;;;;11.40;99.90;;;;;;4922967;29;19916;-72
2023/10/24 05:17:09;;;;;;;;;;;11.40;99.90;;;;;;4938220;29;19906;-71
2023/10/24 05:19:35;;;;;;;;;;;11.30;99.90;;;;;;4929921;29;19915;-77
2023/10/24 05:22:00;;;;;;;;;;;11.30;99.90;;;;;;4920016;29;19954;-77
2023/10/24 05:24:26;;;;;;;;;;;11.30;99.90;;;;;;4920119;29;20347;-77
2023/10/24 05:26:51;;;;;;;;;;;11.20;99.90;;;;;;4919955;29;19907;-77
2023/10/24 05:29:17;;;;;;;;;;;11.20;99.90;;;;;;4919890;29;20010;-72
2023/10/24 05:31:42;;;;;;;;;;;11.20;99.90;;;;;;4933457;29;19911;-77
2023/10/24 05:34:08;;;;;;;;;;;11.20;99.90;;;;;;4936960;29;19919;-77
2023/10/24 05:36:33;;;;;;;;;;;11.10;99.90;;;;;;4935387;29;19981;-77
2023/10/24 05:39:00;;;;;;;;;;;11.10;99.90;;;;;;4941133;29;20808;-77
2023/10/24 05:41:25;;;;;;;;;;;11.10;99.90;;;;;;4938274;29;19914;-72
2023/10/24 05:43:51;;;;;;;;;;;11.10;99.90;;;;;;4936820;29;20269;-76
2023/10/24 05:46:16;;;;;;;;;;;11.10;99.90;;;;;;4942652;29;19919;-77
2023/10/24 05:48:42;;;;;;;;;;;11.10;99.90;;;;;;4936691;29;19922;-76
2023/10/24 05:51:08;;;;;;;;;;;11.10;99.90;;;;;;4937545;29;19990;-76
2023/10/24 05:53:34;;;;;;;;;;;11.10;99.90;;;;;;4919095;29;19911;-71
2023/10/24 05:55:59;;;;;;;;;;;11.10;99.90;;;;;;4919032;29;20342;-72
2023/10/24 05:58:25;;;;;;;;;;;11.00;99.90;;;;;;4918945;29;19911;-76
2023/10/24 06:00:51;;;;;;;;;;;11.00;99.90;;;;;;4941030;29;20341;-76
2023/10/24 06:03:16;;;;;;;;;;;11.10;99.90;;;;;;4948123;29;19958;-76
2023/10/24 06:05:42;;;;;;;;;;;11.00;99.90;;;;;;4937627;29;20395;-72
2023/10/24 06:08:07;;;;;;;;;;;11.00;99.90;;;;;;4937857;29;19906;-72
2023/10/24 06:10:33;;;;;;;;;;;11.00;99.90;;;;;;4939660;29;20080;-76
2023/10/24 06:12:58;;;;;;;;;;;11.00;99.90;;;;;;4937614;29;19907;-76
2023/10/24 06:15:24;;;;;;;;;;;11.10;99.90;;;;;;4944659;29;19906;-76
2023/10/24 06:17:49;;;;;;;;;;;11.00;99.90;;;;;;4955678;29;20013;-72
2023/10/24 06:20:15;;;;;;;;;;;11.00;99.90;;;;;;4956650;29;20247;-72
2023/10/24 06:22:40;;;;;;;;;;;11.00;99.90;;;;;;4937242;29;19918;-76
2023/10/24 06:25:06;;;;;;;;;;;11.00;99.90;;;;;;4932835;29;19918;-76
2023/10/24 06:27:31;;;;;;;;;;;11.00;99.90;;;;;;4936145;29;20433;-77
2023/10/24 06:29:57;;;;;;;;;;;11.00;99.90;;;;;;4945290;29;19910;-75
2023/10/24 06:32:22;;;;;;;;;;;11.00;99.90;;;;;;4941716;29;19933;-72
2023/10/24 06:34:48;;;;;;;;;;;11.10;99.90;;;;;;4933060;29;19938;-72
2023/10/24 06:37:13;;;;;;;;;;;11.10;99.90;;;;;;4950035;29;20005;-76
2023/10/24 06:39:39;;;;;;;;;;;11.10;99.90;;;;;;4950611;29;19937;-76
2023/10/24 06:42:04;;;;;;;;;;;11.20;99.90;;;;;;4947317;29;19922;-76
2023/10/24 06:44:30;;;;;;;;;;;11.20;99.90;;;;;;4944645;29;20390;-72
2023/10/24 06:46:56;;;;;;;;;;;11.30;99.90;;;;;;4932818;29;20081;-72
2023/10/24 06:49:22;;;;;;;;;;;11.30;99.90;;;;;;4930625;29;19915;-76
2023/10/24 06:51:47;;;;;;;;;;;11.30;99.90;;;;;;4936573;29;19953;-76
2023/10/24 06:54:13;;;;;;;;;;;11.30;99.90;;;;;;4933678;29;19915;-72
2023/10/24 06:56:38;;;;;;;;;;;11.30;99.90;;;;;;4945920;29;19918;-72
2023/10/24 06:59:03;;;;;;;;;;;11.30;99.90;;;;;;4932014;29;19915;-72
2023/10/24 07:01:29;;;;;;;;;;;11.30;99.90;;;;;;4936779;29;19922;-76
2023/10/24 07:03:55;;;;;;;;;;;11.30;99.90;;;;;;4943825;29;20003;-76
2023/10/24 07:06:21;;;;;;;;;;;11.30;99.90;;;;;;4932623;29;19918;-72
2023/10/24 07:08:48;;;;;;;;;;;11.30;99.90;;;;;;4932932;29;20303;-76
2023/10/24 07:11:14;;;;;;;;;;;11.30;99.90;;;;;;4927533;29;19953;-72
2023/10/24 07:13:39;;;;;;;;;;;11.30;99.90;;;;;;4929738;29;19966;-72
2023/10/24 07:16:14;;;;;;;;;;;11.30;99.90;;;;;;4940501;29;19910;-77
2023/10/24 07:18:40;;;;;;;;;;;11.30;99.90;;;;;;4940428;29;19910;-76
2023/10/24 07:21:06;;;;;;;;;;;11.40;99.90;;;;;;4925458;29;20541;-72
2023/10/24 07:23:31;;;;;;;;;;;11.50;99.90;;;;;;4934187;29;20013;-71
2023/10/24 07:25:57;;;;;;;;;;;11.60;99.90;;;;;;4916360;29;19911;-77
2023/10/24 07:28:22;;;;;;;;;;;11.60;99.90;;;;;;4917160;29;19981;-76
2023/10/24 07:30:51;;;;;;;;;;;11.70;99.90;;;;;;4938354;29;20013;-76
2023/10/24 07:33:23;;;;;;;;;;;11.90;99.90;;;;;;4916674;29;19958;-75
2023/10/24 07:35:50;;;;;;;;;;;12.20;99.90;;;;;;4930407;29;19919;-72
2023/10/24 07:38:16;;;;;;;;;;;12.20;99.90;;;;;;4946913;29;19907;-73
2023/10/24 07:40:42;;;;;;;;;;;12.30;99.90;;;;;;4936298;29;20349;-77
2023/10/24 07:43:07;;;;;;;;;;;12.30;99.90;;;;;;4935045;29;20002;-77
2023/10/24 07:45:33;;;;;;;;;;;12.30;99.90;;;;;;4926412;29;19973;-77
2023/10/24 07:47:59;;;;;;;;;;;12.30;99.90;;;;;;4942443;29;19910;-76
2023/10/24 07:50:25;;;;;;;;;;;12.50;99.90;;;;;;4938618;29;20024;-72
2023/10/24 07:52:50;;;;;;;;;;;12.90;99.90;;;;;;4927110;29;20335;-72
2023/10/24 07:55:16;;;;;;;;;;;12.80;99.90;;;;;;4943788;29;19937;-76
2023/10/24 07:57:41;;;;;;;;;;;12.70;99.90;;;;;;4924125;29;19973;-76
2023/10/24 08:00:10;;;;;;;;;;;12.90;99.90;;;;;;4929521;29;20397;-76
2023/10/24 08:02:36;;;;;;;;;;;13.50;99.90;;;;;;4927789;29;19918;-72
2023/10/24 08:05:01;;;;;;;;;;;13.10;99.90;;;;;;4931047;29;19994;-73
2023/10/24 08:07:27;;;;;;;;;;;13.10;99.90;;;;;;4936075;29;20298;-76
2023/10/24 08:09:52;;;;;;;;;;;13.00;99.90;;;;;;4942331;29;19919;-76
2023/10/24 08:12:18;;;;;;;;;;;13.00;99.90;;;;;;4934967;29;19978;-76
2023/10/24 08:14:43;;;;;;;;;;;12.90;99.90;;;;;;4936951;29;20401;-72
2023/10/24 08:17:09;;;;;;;;;;;12.90;99.90;;;;;;4924955;29;19915;-72
2023/10/24 08:19:34;;;;;;;;;;;12.90;99.90;;;;;;4934974;29;19914;-74
2023/10/24 08:22:00;;;;;;;;;;;13.00;99.90;;;;;;4929388;29;20005;-73
2023/10/24 08:24:25;;;;;;;;;;;13.00;99.90;;;;;;4931467;29;19941;-76
2023/10/24 08:26:51;;;;;;;;;;;13.10;99.90;;;;;;4939294;29;19990;-78
2023/10/24 08:29:16;;;;;;;;;;;14.10;99.90;;;;;;4929603;29;19919;-74
2023/10/24 08:31:42;;;;;;;;;;;14.20;99.90;;;;;;4933752;29;20333;-75
2023/10/24 08:34:07;;;;;;;;;;;14.20;99.90;;;;;;4939700;29;20013;-78
2023/10/24 08:36:33;;;;;;;;;;;14.60;99.90;;;;;;4935822;29;19919;-76
2023/10/24 08:38:58;;;;;;;;;;;14.80;99.90;;;;;;4933951;29;20370;-75
2023/10/24 08:41:24;;;;;;;;;;;14.60;99.90;;;;;;4931573;29;19950;-76
2023/10/24 08:43:50;;;;;;;;;;;14.30;99.90;;;;;;4935556;29;19925;-74
2023/10/24 08:46:15;;;;;;;;;;;14.50;99.90;;;;;;4929494;29;19926;-78
2023/10/24 08:48:41;;;;;;;;;;;15.10;99.90;;;;;;4932168;29;20347;-78
2023/10/24 08:51:06;;;;;;;;;;;15.40;99.90;;;;;;4928798;29;19958;-78
2023/10/24 08:53:32;;;;;;;;;;;15.50;99.90;;;;;;4928771;29;19958;-73
2023/10/24 08:55:59;;;;;;;;;;;15.70;99.90;;;;;;4935816;29;19907;-74
2023/10/24 08:58:27;;;;;;;;;;;15.70;99.90;;;;;;4927255;29;19923;-73
2023/10/24 09:00:53;;;;;;;;;;;16.00;99.90;;;;;;4925967;29;19915;-78
2023/10/24 09:03:18;;;;;;;;;;;16.70;99.90;;;;;;4925024;29;20421;-78
2023/10/24 09:05:47;;;;;;;;;;;16.50;99.90;;;;;;4932279;29;20005;-77
2023/10/24 09:08:14;;;;;;;;;;;16.70;99.90;;;;;;4914397;29;19915;-73
2023/10/24 09:10:39;;;;;;;;;;;17.50;99.90;;;;;;4923570;29;20278;-72
2023/10/24 09:13:08;;;;;;;;;;;18.60;99.90;;;;;;4932957;29;19914;-77
2023/10/24 09:15:37;;;;;;;;;;;18.00;99.90;;;;;;4932671;29;19977;-77
2023/10/24 09:18:04;;;;;;;;;;;17.80;99.90;;;;;;4918506;29;19918;-76
2023/10/24 09:20:30;;;;;;;;;;;18.60;99.90;;;;;;4915252;29;20378;-72
2023/10/24 09:23:01;;;;;;;;;;;18.50;99.90;;;;;;4927556;29;20357;-72
2023/10/24 09:25:28;;;;;;;;;;;17.20;99.90;;;;;;4920446;29;19911;-72
2023/10/24 09:27:54;;;;;;;;;;;16.40;99.90;;;;;;4919593;29;19911;-76
2023/10/24 09:30:20;;;;;;;;;;;16.30;99.90;;;;;;4914194;29;19911;-77
2023/10/24 09:32:46;;;;;;;;;;;16.30;99.90;;;;;;4919782;29;19911;-73
2023/10/24 09:35:13;;;;;;;;;;;16.10;99.90;;;;;;4926356;29;19915;-72
2023/10/24 09:37:44;;;;;;;;;;;16.10;99.90;;;;;;4929509;29;19921;-75
2023/10/24 09:40:10;;;;;;;;;;;16.10;99.90;;;;;;4915567;29;19915;-76
2023/10/24 09:42:36;;;;;;;;;;;16.20;99.90;;;;;;4930007;29;19914;-77
2023/10/24 09:45:04;;;;;;;;;;;16.30;99.90;;;;;;4928271;29;20308;-78
2023/10/24 09:47:31;;;;;;;;;;;16.30;99.90;;;;;;4910437;29;19927;-73
2023/10/24 09:49:57;;;;;;;;;;;16.20;99.90;;;;;;4901820;29;19915;-73
2023/10/24 09:52:24;;;;;;;;;;;16.30;99.90;;;;;;4903489;29;20342;-73
2023/10/24 09:54:50;;;;;;;;;;;16.30;99.90;;;;;;4897849;29;19911;-76
2023/10/24 09:57:22;;;;;;;;;;;16.20;99.90;;;;;;4902323;29;20375;-75
2023/10/24 09:59:49;;;;;;;;;;;16.30;99.90;;;;;;4896877;29;19911;-73
2023/10/24 10:02:16;;;;;;;;;;;16.50;99.90;;;;;;4910899;29;20502;-72
2023/10/24 10:04:45;;;;;;;;;;;16.30;99.90;;;;;;4898903;29;19974;-75
2023/10/24 10:07:13;;;;;;;;;;;16.20;99.90;;;;;;4910722;29;19912;-75
2023/10/24 10:09:41;;;;;;;;;;;16.20;99.90;;;;;;4903663;29;19911;-73
2023/10/24 10:12:07;;;;;;;;;;;16.30;99.90;;;;;;4915774;29;20339;-72
2023/10/24 10:14:52;;;;;;;;;;;16.30;99.90;;;;;;4917211;29;20348;-72
2023/10/24 10:17:35;;;;;;;;;;;16.30;99.90;;;;;;4910673;29;19919;-75
2023/10/24 10:20:19;;;;;;;;;;;16.30;99.90;;;;;;4923473;29;20761;-73
2023/10/24 10:22:55;;;;;;;;;;;16.40;99.90;;;;;;4911322;29;20022;-76
2023/10/24 10:25:27;;;;;;;;;;;16.70;99.90;;;;;;4914140;29;19911;-73
2023/10/24 10:28:17;;;;;;;;;;;16.70;99.90;;;;;;4911810;29;19919;-73
2023/10/24 10:31:01;;;;;;;;;;;16.80;99.90;;;;;;4907754;29;19918;-75
2023/10/24 10:33:27;;;;;;;;;;;16.70;99.90;;;;;;4905640;29;20364;-73
2023/10/24 10:36:02;;;;;;;;;;;16.70;99.90;;;;;;4907230;29;19974;-73
2023/10/24 10:38:39;;;;;;;;;;;16.70;99.90;;;;;;4906274;29;19919;-72
2023/10/24 10:41:21;;;;;;;;;;;16.50;99.90;;;;;;4909982;29;20298;-73
2023/10/24 10:43:50;;;;;;;;;;;16.80;99.90;;;;;;4912036;29;19911;-73
2023/10/24 10:46:19;;;;;;;;;;;17.00;99.90;;;;;;4916660;29;19927;-75
2023/10/24 10:48:44;;;;;;;;;;;17.10;99.90;;;;;;4931719;29;19926;-75
2023/10/24 10:51:13;;;;;;;;;;;17.20;99.90;;;;;;4932560;29;19914;-73
2023/10/24 10:53:48;;;;;;;;;;;17.40;99.90;;;;;;4929310;29;19966;-73
2023/10/24 10:56:22;;;;;;;;;;;17.50;99.90;;;;;;4923495;29;20373;-76
2023/10/24 10:59:06;;;;;;;;;;;17.30;99.90;;;;;;4930094;29;19993;-73
2023/10/24 11:01:33;;;;;;;;;;;17.20;99.90;;;;;;4928070;29;19961;-76
2023/10/24 11:03:59;;;;;;;;;;;17.10;99.90;;;;;;4933534;29;19911;-73
2023/10/24 11:06:28;;;;;;;;;;;17.10;99.90;;;;;;4926633;29;20041;-73
2023/10/24 11:09:07;;;;;;;;;;;17.20;99.90;;;;;;4919530;29;19914;-73
2023/10/24 11:11:33;;;;;;;;;;;17.30;99.90;;;;;;4925400;29;19997;-76
2023/10/24 11:14:19;;;;;;;;;;;17.40;99.90;;;;;;4931528;29;20326;-73
2023/10/24 11:16:45;;;;;;;;;;;17.30;99.90;;;;;;4930673;29;19915;-73
2023/10/24 11:19:20;;;;;;;;;;;17.10;99.90;;;;;;4923331;29;20021;-73
2023/10/24 11:21:49;;;;;;;;;;;17.10;99.90;;;;;;4924544;29;19925;-76
2023/10/24 11:24:17;;;;;;;;;;;17.20;99.90;;;;;;4930318;29;20033;-76
2023/10/24 11:26:44;;;;;;;;;;;17.30;99.90;;;;;;4921645;29;19930;-73
2023/10/24 11:29:11;;;;;;;;;;;17.30;99.90;;;;;;4927579;29;19923;-75
2023/10/24 11:31:36;;;;;;;;;;;17.30;99.90;;;;;;4926095;29;20037;-73
2023/10/24 11:34:03;;;;;;;;;;;17.30;99.90;;;;;;4928835;29;20002;-72
2023/10/24 11:36:28;;;;;;;;;;;17.20;99.90;;;;;;4930452;29;19915;-75
2023/10/24 11:38:55;;;;;;;;;;;17.30;99.90;;;;;;4933029;29;19934;-73
2023/10/24 11:41:20;;;;;;;;;;;17.60;99.90;;;;;;4928456;29;20283;-75
2023/10/24 11:43:47;;;;;;;;;;;17.60;99.90;;;;;;4928951;29;19922;-73
2023/10/24 11:46:13;;;;;;;;;;;17.60;99.90;;;;;;4932780;29;19927;-73
2023/10/24 11:48:39;;;;;;;;;;;17.50;99.90;;;;;;4920695;29;19910;-73
2023/10/24 11:51:04;;;;;;;;;;;17.50;99.90;;;;;;4934385;29;19917;-74
2023/10/24 11:53:30;;;;;;;;;;;17.50;99.90;;;;;;4921362;29;20303;-75
2023/10/24 11:55:56;;;;;;;;;;;17.60;99.90;;;;;;4927573;29;19922;-73
2023/10/24 11:58:22;;;;;;;;;;;17.60;99.90;;;;;;4934542;29;19906;-73
2023/10/24 12:00:48;;;;;;;;;;;17.70;99.90;;;;;;4930554;29;19921;-73
2023/10/24 12:03:13;;;;;;;;;;;18.00;99.90;;;;;;4915412;29;20025;-75
2023/10/24 12:05:50;;;;;;;;;;;18.00;99.90;;;;;;4916947;29;19922;-75
2023/10/24 12:08:15;;;;;;;;;;;18.00;99.90;;;;;;4925024;29;19921;-73
2023/10/24 12:10:51;;;;;;;;;;;17.80;99.90;;;;;;4931532;29;19907;-73
2023/10/24 12:13:16;;;;;;;;;;;17.50;99.90;;;;;;4931704;29;19911;-73
2023/10/24 12:15:42;;;;;;;;;;;17.10;99.90;;;;;;4933689;29;19914;-75
2023/10/24 12:18:07;;;;;;;;;;;16.90;99.90;;;;;;4935648;29;19977;-76
2023/10/24 12:20:33;;;;;;;;;;;16.50;99.90;;;;;;4952326;29;19906;-75
2023/10/24 12:22:58;;;;;;;;;;;16.00;99.90;;;;;;4914856;29;19915;-75
2023/10/24 12:25:24;;;;;;;;;;;15.60;99.90;;;;;;4922521;29;19915;-75
2023/10/24 12:27:49;;;;;;;;;;;15.40;99.90;;;;;;4929265;29;19915;-75
2023/10/24 12:30:15;;;;;;;;;;;15.50;99.90;;;;;;4940132;29;20453;-76
2023/10/24 12:32:41;;;;;;;;;;;15.60;99.90;;;;;;4930692;29;19961;-75
2023/10/24 12:35:07;;;;;;;;;;;15.70;99.90;;;;;;4932102;29;19953;-74
2023/10/24 12:37:33;;;;;;;;;;;16.20;99.90;;;;;;4931946;29;19918;-74
2023/10/24 12:39:59;;;;;;;;;;;16.80;99.90;;;;;;4924612;29;19910;-72
2023/10/24 12:42:25;;;;;;;;;;;17.10;99.90;;;;;;4933421;29;19937;-75
2023/10/24 12:44:50;;;;;;;;;;;17.20;99.90;;;;;;4925452;29;19973;-74
2023/10/24 12:47:16;;;;;;;;;;;17.20;99.90;;;;;;4942160;29;19929;-74
2023/10/24 12:49:41;;;;;;;;;;;17.60;99.90;;;;;;4925931;29;19929;-74
2023/10/24 12:52:07;;;;;;;;;;;18.00;99.90;;;;;;4931153;29;19922;-74
2023/10/24 12:54:33;;;;;;;;;;;18.00;99.90;;;;;;4925703;29;19915;-76
2023/10/24 12:56:58;;;;;;;;;;;18.10;99.90;;;;;;4932794;29;19950;-75
2023/10/24 12:59:24;;;;;;;;;;;17.80;99.90;;;;;;4933340;29;20005;-75
2023/10/24 13:01:49;;;;;;;;;;;17.70;99.90;;;;;;4949226;29;20155;-73
2023/10/24 13:04:15;;;;;;;;;;;17.60;99.90;;;;;;4927193;29;19987;-73
2023/10/24 13:06:40;;;;;;;;;;;17.60;99.90;;;;;;4929474;29;19933;-73
2023/10/24 13:09:08;;;;;;;;;;;17.60;99.90;;;;;;4938769;29;19918;-76
2023/10/24 13:11:34;;;;;;;;;;;17.60;99.90;;;;;;4931749;29;19911;-73
2023/10/24 13:14:00;;;;;;;;;;;17.50;99.90;;;;;;4927959;29;20409;-73
2023/10/24 13:16:26;;;;;;;;;;;17.40;99.90;;;;;;4931136;29;19919;-74
2023/10/24 13:18:51;;;;;;;;;;;17.30;99.90;;;;;;4942973;29;20298;-73
2023/10/24 13:21:18;;;;;;;;;;;17.30;99.90;;;;;;4913989;29;20346;-75
2023/10/24 13:23:43;;;;;;;;;;;17.30;99.90;;;;;;4919147;29;19922;-75
2023/10/24 13:26:09;;;;;;;;;;;17.10;99.90;;;;;;4913724;29;19915;-76
2023/10/24 13:28:34;;;;;;;;;;;17.10;99.90;;;;;;4914055;29;20442;-74
2023/10/24 13:31:00;;;;;;;;;;;16.90;99.90;;;;;;4909543;29;20346;-74
2023/10/24 13:33:25;;;;;;;;;;;16.90;99.90;;;;;;4920490;29;19915;-76
2023/10/24 13:35:51;;;;;;;;;;;17.00;99.90;;;;;;4944605;29;20410;-73
2023/10/24 13:38:19;;;;;;;;;;;17.00;99.90;;;;;;4939139;29;19915;-74
2023/10/24 13:40:44;;;;;;;;;;;16.90;99.90;;;;;;4928694;29;19911;-73
2023/10/24 13:43:10;;;;;;;;;;;16.90;99.90;;;;;;4927730;29;19915;-73
2023/10/24 13:45:35;;;;;;;;;;;16.90;99.90;;;;;;4935957;29;19927;-75
2023/10/24 13:48:01;;;;;;;;;;;16.90;99.90;;;;;;4928131;29;19910;-73
2023/10/24 13:50:26;;;;;;;;;;;16.80;99.90;;;;;;4931610;29;20392;-73
2023/10/24 13:52:52;;;;;;;;;;;16.80;99.90;;;;;;4927804;29;19911;-72
2023/10/24 13:55:17;;;;;;;;;;;16.80;99.90;;;;;;4927283;29;20286;-74
2023/10/24 13:57:43;;;;;;;;;;;16.70;99.90;;;;;;4935760;29;19951;-74
2023/10/24 14:00:10;;;;;;;;;;;16.50;99.90;;;;;;4935403;29;20067;-75
2023/10/24 14:02:35;;;;;;;;;;;16.10;99.90;;;;;;4926444;29;19911;-75
2023/10/24 14:05:03;;;;;;;;;;;16.20;99.90;;;;;;4926323;29;19910;-75
2023/10/24 14:07:28;;;;;;;;;;;16.30;99.90;;;;;;4929453;29;19911;-73
2023/10/24 14:09:54;;;;;;;;;;;16.60;99.90;;;;;;4924261;29;19914;-74
2023/10/24 14:12:19;;;;;;;;;;;16.80;99.90;;;;;;4929678;29;20026;-73